createdAt,value
2017-12-23T00:00:39.458Z,16.97
2017-12-23T00:03:07.102Z,19.07
2017-12-23T00:05:34.614Z,18.45
2017-12-23T00:08:02.087Z,18.53
2017-12-23T00:10:31.130Z,18.30
2017-12-23T00:12:58.621Z,18.42
2017-12-23T00:15:26.212Z,19.42
2017-12-23T00:17:53.761Z,17.55
2017-12-23T00:20:21.246Z,18.95
2017-12-23T00:22:48.736Z,21.25
2017-12-23T00:25:16.258Z,24.17
2017-12-23T00:27:43.743Z,23.27
2017-12-23T00:30:11.229Z,24.75
2017-12-23T00:32:40.465Z,25.50
2017-12-23T00:35:08.213Z,27.33
2017-12-23T00:37:35.751Z,25.52
2017-12-23T00:40:03.414Z,28.67
2017-12-23T00:42:30.966Z,31.43
2017-12-23T00:44:58.465Z,33.63
2017-12-23T00:47:25.974Z,33.20
2017-12-23T00:49:53.458Z,33.80
2017-12-23T00:52:21.730Z,34.95
2017-12-23T00:54:49.227Z,35.55
2017-12-23T00:57:16.718Z,36.90
2017-12-23T00:59:44.230Z,37.42
2017-12-23T01:02:12.498Z,40.42
2017-12-23T01:04:40.766Z,41.45
2017-12-23T01:07:08.250Z,45.90
2017-12-23T01:09:36.538Z,44.97
2017-12-23T01:12:04.026Z,44.17
2017-12-23T01:14:31.517Z,45.92
2017-12-23T01:16:59.038Z,42.50
2017-12-23T01:19:26.538Z,45.12
2017-12-23T01:21:54.074Z,44.13
2017-12-23T01:24:21.598Z,45.30
2017-12-23T01:26:49.116Z,51.70
2017-12-23T01:29:16.612Z,43.60
2017-12-23T01:31:44.122Z,41.55
2017-12-23T01:34:11.610Z,46.83
2017-12-23T01:36:39.870Z,48.03
2017-12-23T01:39:07.378Z,45.22
2017-12-23T01:41:35.429Z,47.08
2017-12-23T01:44:03.701Z,49.03
2017-12-23T01:46:31.974Z,44.35
2017-12-23T01:49:00.230Z,46.63
2017-12-23T01:51:28.230Z,47.00
2017-12-23T01:53:56.590Z,42.42
2017-12-23T01:56:24.094Z,44.63
2017-12-23T01:58:51.614Z,49.42
2017-12-23T02:01:19.130Z,44.45
2017-12-23T02:03:46.630Z,47.03
2017-12-23T02:06:14.157Z,49.88
2017-12-23T02:08:41.851Z,46.30
2017-12-23T02:11:09.379Z,47.30
2017-12-23T02:13:36.930Z,49.55
2017-12-23T02:16:05.221Z,47.25
2017-12-23T02:18:32.771Z,44.38
2017-12-23T02:21:00.304Z,49.40
2017-12-23T02:23:27.809Z,44.40
2017-12-23T02:25:55.300Z,45.83
2017-12-23T02:28:23.562Z,45.35
2017-12-23T02:30:51.082Z,44.53
2017-12-23T02:33:18.578Z,45.15
2017-12-23T02:35:46.069Z,42.95
2017-12-23T02:38:13.578Z,42.40
2017-12-23T02:40:41.119Z,42.20
2017-12-23T02:43:08.615Z,46.92
2017-12-23T02:45:36.147Z,46.00
2017-12-23T02:48:03.642Z,45.80
2017-12-23T02:50:31.898Z,44.88
2017-12-23T02:52:59.416Z,51.00
2017-12-23T02:55:26.913Z,48.13
2017-12-23T02:57:54.402Z,48.50
2017-12-23T03:00:22.685Z,51.75
2017-12-23T03:02:50.933Z,48.78
2017-12-23T03:05:18.434Z,49.63
2017-12-23T03:07:45.946Z,49.95
2017-12-23T03:10:13.434Z,48.45
2017-12-23T03:12:41.696Z,52.38
2017-12-23T03:15:09.285Z,49.90
2017-12-23T03:17:36.790Z,52.83
2017-12-23T03:20:04.284Z,53.75
2017-12-23T03:22:32.566Z,52.13
2017-12-23T03:25:00.822Z,50.83
2017-12-23T03:27:28.311Z,51.63
2017-12-23T03:29:55.818Z,59.88
2017-12-23T03:32:23.305Z,55.45
2017-12-23T03:34:50.803Z,58.58
2017-12-23T03:37:18.301Z,54.60
2017-12-23T03:39:45.799Z,54.85
2017-12-23T03:42:14.050Z,54.72
2017-12-23T03:44:41.678Z,54.92
2017-12-23T03:47:09.198Z,55.35
2017-12-23T03:49:36.685Z,54.85
2017-12-23T03:52:04.198Z,51.75
2017-12-23T03:54:34.127Z,52.53
2017-12-23T03:57:01.617Z,53.10
2017-12-23T03:59:29.125Z,49.75
2017-12-23T04:01:57.419Z,50.17
2017-12-23T04:04:25.880Z,50.00
2017-12-23T04:06:53.390Z,47.60
2017-12-23T04:09:21.020Z,42.55
2017-12-23T04:11:48.529Z,45.35
2017-12-23T04:14:16.034Z,46.08
2017-12-23T04:16:44.282Z,44.58
2017-12-23T04:19:11.766Z,43.08
2017-12-23T04:21:40.045Z,46.00
2017-12-23T04:24:08.291Z,43.05
2017-12-23T04:26:35.783Z,40.83
2017-12-23T04:29:03.277Z,42.45
2017-12-23T04:31:32.494Z,42.08
2017-12-23T04:33:59.995Z,43.60
2017-12-23T04:36:27.497Z,45.05
2017-12-23T04:38:54.996Z,41.72
2017-12-23T04:41:23.278Z,42.58
2017-12-23T04:43:51.542Z,43.05
2017-12-23T04:46:20.561Z,44.95
2017-12-23T04:48:48.074Z,38.33
2017-12-23T04:51:15.582Z,40.15
2017-12-23T04:53:43.069Z,38.70
2017-12-23T04:56:10.554Z,38.00
2017-12-23T04:58:38.054Z,38.28
2017-12-23T05:01:05.550Z,34.30
2017-12-23T05:03:33.378Z,32.50
2017-12-23T05:06:00.878Z,33.33
2017-12-23T05:08:28.365Z,28.48
2017-12-23T05:10:56.622Z,30.77
2017-12-23T05:13:24.130Z,25.52
2017-12-23T05:15:51.627Z,31.05
2017-12-23T05:18:19.270Z,27.08
2017-12-23T05:20:47.006Z,28.92
2017-12-23T05:23:14.626Z,30.00
2017-12-23T05:25:42.116Z,26.12
2017-12-23T05:28:09.626Z,27.42
2017-12-23T05:30:37.109Z,28.17
2017-12-23T05:33:04.595Z,27.77
2017-12-23T05:35:33.034Z,25.92
2017-12-23T05:38:00.518Z,25.77
2017-12-23T05:40:28.777Z,25.17
2017-12-23T05:42:56.293Z,24.15
2017-12-23T05:45:23.782Z,23.92
2017-12-23T05:47:51.266Z,23.65
2017-12-23T05:50:19.526Z,22.98
2017-12-23T05:52:47.102Z,20.27
2017-12-23T05:55:14.626Z,17.90
2017-12-23T05:57:42.123Z,18.33
2017-12-23T06:00:10.383Z,18.00
2017-12-23T06:02:37.869Z,19.23
2017-12-23T06:05:06.151Z,20.95
2017-12-23T06:07:33.717Z,21.48
2017-12-23T06:10:02.442Z,22.05
2017-12-23T06:12:29.966Z,22.02
2017-12-23T06:14:57.462Z,22.70
2017-12-23T06:17:24.953Z,22.45
2017-12-23T06:19:53.230Z,19.92
2017-12-23T06:22:21.491Z,22.30
2017-12-23T06:24:48.982Z,24.98
2017-12-23T06:27:17.259Z,25.90
2017-12-23T06:29:45.506Z,25.00
2017-12-23T06:32:13.565Z,23.08
2017-12-23T06:34:41.088Z,23.80
2017-12-23T06:37:08.586Z,25.15
2017-12-23T06:39:36.074Z,25.02
2017-12-23T06:42:04.350Z,24.92
2017-12-23T06:44:32.603Z,23.35
2017-12-23T06:47:00.093Z,26.58
2017-12-23T06:49:28.362Z,21.85
2017-12-23T06:51:56.613Z,22.08
2017-12-23T06:54:24.878Z,21.25
2017-12-23T06:56:52.616Z,20.52
2017-12-23T06:59:20.307Z,17.55
2017-12-23T07:01:47.801Z,14.10
2017-12-23T07:04:15.349Z,14.40
2017-12-23T07:06:42.830Z,14.00
2017-12-23T07:09:10.318Z,11.57
2017-12-23T07:11:37.826Z,12.85
2017-12-23T07:14:06.080Z,12.10
2017-12-23T07:16:33.574Z,12.00
2017-12-23T07:19:01.850Z,12.00
2017-12-23T07:21:30.102Z,11.32
2017-12-23T07:23:57.586Z,12.40
2017-12-23T07:26:25.902Z,9.90
2017-12-23T07:28:53.453Z,8.90
2017-12-23T07:31:20.955Z,8.82
2017-12-23T07:33:48.450Z,9.48
2017-12-23T07:36:15.938Z,7.72
2017-12-23T07:38:43.558Z,6.87
2017-12-23T07:41:11.082Z,7.45
2017-12-23T07:43:38.783Z,6.22
2017-12-23T07:46:07.092Z,7.05
2017-12-23T07:48:34.597Z,7.80
2017-12-23T07:51:02.082Z,7.93
2017-12-23T07:53:30.330Z,8.43
2017-12-23T07:55:57.848Z,7.95
2017-12-23T07:58:25.371Z,8.00
2017-12-23T08:00:52.860Z,8.45
2017-12-23T08:03:20.442Z,8.15
2017-12-23T08:05:47.943Z,7.22
2017-12-23T08:08:16.198Z,8.30
2017-12-23T08:10:43.706Z,7.30
2017-12-23T08:13:11.186Z,7.22
2017-12-23T08:15:39.660Z,8.07
2017-12-23T08:18:07.155Z,6.60
2017-12-23T08:20:34.638Z,7.90
2017-12-23T08:23:02.891Z,7.75
2017-12-23T08:25:30.397Z,7.35
2017-12-23T08:27:57.910Z,6.47
2017-12-23T08:30:25.386Z,7.32
2017-12-23T08:32:52.890Z,6.90
2017-12-23T08:35:20.523Z,6.75
2017-12-23T08:37:48.074Z,8.63
2017-12-23T08:40:15.646Z,8.35
2017-12-23T08:42:43.134Z,8.15
2017-12-23T08:45:10.622Z,7.47
2017-12-23T08:47:38.114Z,8.23
2017-12-23T08:50:06.378Z,8.50
2017-12-23T08:52:33.856Z,8.55
2017-12-23T08:55:01.375Z,8.80
2017-12-23T08:57:28.854Z,8.27
2017-12-23T08:59:56.328Z,8.95
2017-12-23T09:02:24.606Z,8.93
2017-12-23T09:04:52.868Z,8.55
2017-12-23T09:07:21.110Z,8.05
2017-12-23T09:09:48.758Z,8.20
2017-12-23T09:12:16.254Z,8.65
2017-12-23T09:14:43.745Z,7.62
2017-12-23T09:17:11.262Z,8.38
2017-12-23T09:19:38.742Z,8.77
2017-12-23T09:22:07.007Z,8.13
2017-12-23T09:24:34.512Z,6.93
2017-12-23T09:27:01.998Z,8.75
2017-12-23T09:29:29.482Z,9.65
2017-12-23T09:31:56.982Z,8.15
2017-12-23T09:34:24.478Z,10.38
2017-12-23T09:36:51.966Z,9.30
2017-12-23T09:39:20.465Z,10.32
2017-12-23T09:41:48.706Z,10.13
2017-12-23T09:44:16.185Z,11.48
2017-12-23T09:46:45.433Z,10.75
2017-12-23T09:49:12.923Z,11.63
2017-12-23T09:51:40.410Z,12.50
2017-12-23T09:54:08.686Z,11.60
2017-12-23T09:56:36.937Z,13.62
2017-12-23T09:59:04.422Z,12.65
2017-12-23T10:01:32.690Z,14.00
2017-12-23T10:04:00.178Z,13.13
2017-12-23T10:06:27.666Z,12.00
2017-12-23T10:08:55.166Z,12.45
2017-12-23T10:11:23.422Z,13.68
2017-12-23T10:13:50.910Z,14.02
2017-12-23T10:16:19.186Z,13.90
2017-12-23T10:18:47.429Z,15.18
2017-12-23T10:21:14.916Z,15.35
2017-12-23T10:23:43.194Z,13.98
2017-12-23T10:26:11.451Z,15.07
2017-12-23T10:28:38.942Z,16.67
2017-12-23T10:31:06.448Z,16.85
2017-12-23T10:33:33.934Z,16.00
2017-12-23T10:36:02.190Z,16.33
2017-12-23T10:38:29.702Z,15.27
2017-12-23T10:40:57.198Z,15.63
2017-12-23T10:43:26.799Z,14.38
2017-12-23T10:45:54.309Z,14.60
2017-12-23T10:48:22.553Z,16.05
2017-12-23T10:50:50.046Z,15.32
2017-12-23T10:53:18.314Z,15.40
2017-12-23T10:55:46.566Z,14.55
2017-12-23T10:58:14.055Z,15.15
2017-12-23T11:00:42.322Z,13.57
2017-12-23T11:03:10.628Z,13.70
2017-12-23T11:05:38.122Z,11.70
2017-12-23T11:08:05.632Z,13.88
2017-12-23T11:10:33.191Z,13.27
2017-12-23T11:13:00.734Z,13.02
2017-12-23T11:15:28.348Z,14.07
2017-12-23T11:17:55.847Z,15.48
2017-12-23T11:20:23.330Z,15.60
2017-12-23T11:22:50.833Z,16.65
2017-12-23T11:25:19.014Z,16.15
2017-12-23T11:27:46.502Z,15.93
2017-12-23T11:30:14.790Z,14.50
2017-12-23T11:32:43.038Z,15.68
2017-12-23T11:35:10.527Z,16.20
2017-12-23T11:37:39.651Z,16.35
2017-12-23T11:40:07.135Z,10.88
2017-12-23T11:42:34.694Z,12.15
2017-12-23T11:45:02.210Z,11.88
2017-12-23T11:47:29.735Z,11.88
2017-12-23T11:49:57.998Z,11.00
2017-12-23T11:52:25.494Z,11.80
2017-12-23T11:54:53.797Z,11.30
2017-12-23T11:57:21.278Z,11.77
2017-12-23T11:59:48.794Z,11.63
2017-12-23T12:02:17.752Z,12.73
2017-12-23T12:04:45.238Z,12.25
2017-12-23T12:07:13.522Z,11.98
2017-12-23T12:09:41.007Z,13.88
2017-12-23T12:12:08.490Z,13.75
2017-12-23T12:14:36.006Z,13.43
2017-12-23T12:17:03.506Z,14.40
2017-12-23T12:19:31.034Z,16.27
2017-12-23T12:21:58.538Z,14.95
2017-12-23T12:24:26.028Z,13.52
2017-12-23T12:26:54.274Z,15.60
2017-12-23T12:29:21.783Z,14.70
2017-12-23T12:31:49.282Z,12.32
2017-12-23T12:34:16.810Z,11.80
2017-12-23T12:36:44.314Z,12.75
2017-12-23T12:39:11.894Z,12.20
2017-12-23T12:41:40.154Z,13.20
2017-12-23T12:44:07.804Z,11.50
2017-12-23T12:46:35.291Z,11.90
2017-12-23T12:49:03.566Z,11.52
2017-12-23T12:51:31.846Z,11.05
2017-12-23T12:54:00.116Z,12.77
2017-12-23T12:56:27.830Z,11.00
2017-12-23T12:58:55.338Z,12.40
2017-12-23T13:01:25.063Z,10.82
2017-12-23T13:03:52.548Z,10.30
2017-12-23T13:06:20.050Z,7.82
2017-12-23T13:08:47.531Z,8.40
2017-12-23T13:11:15.786Z,9.35
2017-12-23T13:13:43.295Z,8.98
2017-12-23T13:16:10.778Z,8.85
2017-12-23T13:18:38.493Z,8.70
2017-12-23T13:21:07.586Z,9.15
2017-12-23T13:23:35.895Z,8.93
2017-12-23T13:26:03.379Z,9.15
2017-12-23T13:28:31.015Z,10.20
2017-12-23T13:30:58.499Z,9.57
2017-12-23T13:33:26.329Z,10.23
2017-12-23T13:35:53.834Z,10.63
2017-12-23T13:38:21.310Z,10.10
2017-12-23T13:40:50.334Z,12.77
2017-12-23T13:43:17.845Z,12.10
2017-12-23T13:45:45.643Z,10.67
2017-12-23T13:48:13.777Z,11.77
2017-12-23T13:50:42.071Z,11.17
2017-12-23T13:53:09.558Z,12.20
2017-12-23T13:55:37.050Z,10.85
2017-12-23T13:58:04.569Z,12.52
2017-12-23T14:00:32.827Z,12.18
2017-12-23T14:03:00.350Z,12.75
2017-12-23T14:05:28.582Z,11.83
2017-12-23T14:07:57.365Z,11.50
2017-12-23T14:13:00.270Z,12.03
2017-12-23T14:15:27.889Z,11.38
2017-12-23T14:17:55.514Z,11.02
2017-12-23T14:20:23.023Z,11.02
2017-12-23T14:22:50.509Z,12.20
2017-12-23T14:25:18.758Z,10.60
2017-12-23T14:30:20.107Z,11.37
2017-12-23T14:32:47.610Z,10.67
2017-12-23T14:35:15.858Z,10.43
2017-12-23T14:37:43.349Z,9.80
2017-12-23T14:40:11.612Z,11.00
2017-12-23T14:42:39.083Z,7.83
2017-12-23T14:45:07.333Z,10.03
2017-12-23T14:47:34.913Z,7.10
2017-12-23T14:50:02.408Z,6.03
2017-12-23T14:52:30.677Z,6.40
2017-12-23T14:54:58.582Z,5.10
2017-12-23T14:57:26.183Z,5.70
2017-12-23T14:59:53.695Z,5.68
2017-12-23T15:02:21.170Z,6.63
2017-12-23T15:04:48.651Z,7.33
2017-12-23T15:07:16.158Z,6.87
2017-12-23T15:09:43.643Z,8.13
2017-12-23T15:12:11.167Z,8.80
2017-12-23T15:14:38.670Z,9.57
2017-12-23T15:17:06.150Z,9.50
2017-12-23T15:19:35.402Z,11.40
2017-12-23T15:22:02.922Z,11.63
2017-12-23T15:24:31.163Z,13.15
2017-12-23T15:26:58.641Z,11.90
2017-12-23T15:29:26.150Z,11.23
2017-12-23T15:31:53.648Z,12.40
2017-12-23T15:34:21.902Z,12.27
2017-12-23T15:36:50.344Z,11.10
2017-12-23T15:39:17.826Z,10.17
2017-12-23T15:41:45.306Z,10.40
2017-12-23T15:44:12.811Z,9.38
2017-12-23T15:46:41.303Z,9.43
2017-12-23T15:49:09.710Z,10.13
2017-12-23T15:51:37.550Z,9.70
2017-12-23T15:54:05.038Z,11.45
2017-12-23T15:56:32.522Z,11.83
2017-12-23T15:59:00.100Z,12.77
2017-12-23T16:01:28.354Z,13.27
2017-12-23T16:03:57.109Z,11.60
2017-12-23T16:06:24.626Z,10.98
2017-12-23T16:08:52.127Z,10.52
2017-12-23T16:11:19.614Z,11.05
2017-12-23T16:13:47.127Z,12.30
2017-12-23T16:16:14.610Z,9.85
2017-12-23T16:18:42.094Z,9.57
2017-12-23T16:21:09.778Z,9.40
2017-12-23T16:23:37.270Z,9.23
2017-12-23T16:26:04.761Z,10.55
2017-12-23T16:28:32.285Z,9.98
2017-12-23T16:30:59.770Z,8.32
2017-12-23T16:33:28.179Z,9.90
2017-12-23T16:35:56.442Z,8.45
2017-12-23T16:38:23.923Z,8.45
2017-12-23T16:40:51.410Z,9.90
2017-12-23T16:43:18.914Z,9.80
2017-12-23T16:45:47.042Z,8.82
2017-12-23T16:48:15.221Z,10.65
2017-12-23T16:50:42.736Z,11.93
2017-12-23T16:53:10.986Z,10.93
2017-12-23T16:55:38.474Z,11.02
2017-12-23T16:58:06.750Z,11.77
2017-12-23T17:00:35.008Z,12.25
2017-12-23T17:03:02.498Z,11.30
2017-12-23T17:05:30.514Z,12.07
2017-12-23T17:07:58.003Z,11.15
2017-12-23T17:10:25.485Z,12.00
2017-12-23T17:12:53.006Z,12.65
2017-12-23T17:15:20.504Z,14.25
2017-12-23T17:17:48.011Z,12.37
2017-12-23T17:20:15.538Z,14.15
2017-12-23T17:22:43.890Z,13.05
2017-12-23T17:25:12.145Z,12.73
2017-12-23T17:27:39.669Z,12.27
2017-12-23T17:33:06.803Z,13.27
2017-12-23T17:35:35.062Z,12.30
2017-12-23T17:38:02.545Z,12.23
2017-12-23T17:40:31.686Z,11.30
2017-12-23T17:42:59.937Z,9.60
2017-12-23T17:45:27.422Z,11.05
2017-12-23T17:47:54.922Z,10.45
2017-12-23T17:50:23.411Z,11.25
2017-12-23T17:52:51.657Z,9.52
2017-12-23T17:55:19.166Z,10.15
2017-12-23T17:57:46.995Z,10.80
2017-12-23T18:00:15.959Z,9.48
2017-12-23T18:02:43.470Z,9.35
2017-12-23T18:05:10.966Z,10.00
2017-12-23T18:07:38.452Z,8.23
2017-12-23T18:10:05.955Z,10.20
2017-12-23T18:12:33.438Z,9.35
2017-12-23T18:15:00.927Z,9.80
2017-12-23T18:17:28.422Z,9.40
2017-12-23T18:19:55.906Z,8.73
2017-12-23T18:22:23.398Z,9.85
2017-12-23T18:24:50.905Z,11.02
2017-12-23T18:27:18.510Z,11.85
2017-12-23T18:29:46.003Z,11.77
2017-12-23T18:32:14.631Z,10.98
2017-12-23T18:34:42.320Z,10.35
2017-12-23T18:37:10.606Z,10.30
2017-12-23T18:39:38.121Z,9.23
2017-12-23T18:42:05.650Z,9.23
2017-12-23T18:44:33.146Z,9.52
2017-12-23T18:47:00.656Z,10.60
2017-12-23T18:49:28.911Z,11.40
2017-12-23T18:51:57.234Z,10.02
2017-12-23T18:54:24.758Z,11.43
2017-12-23T18:56:52.275Z,9.23
2017-12-23T18:59:19.754Z,9.80
2017-12-23T19:01:47.262Z,10.00
2017-12-23T19:04:14.796Z,9.13
2017-12-23T19:06:43.054Z,9.02
2017-12-23T19:09:10.566Z,8.77
2017-12-23T19:11:38.045Z,8.20
2017-12-23T19:14:05.530Z,7.65
2017-12-23T19:16:44.983Z,7.05
2017-12-23T19:19:12.488Z,7.80
2017-12-23T19:21:39.992Z,8.25
2017-12-23T19:24:07.493Z,8.50
2017-12-23T19:26:34.977Z,7.32
2017-12-23T19:29:02.462Z,7.50
2017-12-23T19:31:29.958Z,8.30
2017-12-23T19:33:57.446Z,8.23
2017-12-23T19:36:24.927Z,9.18
2017-12-23T19:38:52.438Z,9.50
2017-12-23T19:41:19.926Z,8.25
2017-12-23T19:43:47.406Z,8.70
2017-12-23T19:46:14.910Z,8.65
2017-12-23T19:48:42.402Z,9.35
2017-12-23T19:51:09.892Z,10.70
2017-12-23T19:53:37.414Z,11.00
2017-12-23T19:56:04.898Z,10.82
2017-12-23T19:58:32.739Z,11.20
2017-12-23T20:01:01.511Z,11.32
2017-12-23T20:03:28.998Z,10.35
2017-12-23T20:05:56.479Z,8.95
2017-12-23T20:08:23.986Z,10.00
2017-12-23T20:10:51.514Z,9.68
2017-12-23T20:13:19.764Z,8.60
2017-12-23T20:15:47.266Z,9.25
2017-12-23T20:18:15.514Z,10.60
2017-12-23T20:20:43.009Z,10.82
2017-12-23T20:23:10.602Z,10.55
2017-12-23T20:25:38.086Z,9.60
2017-12-23T20:28:05.571Z,9.50
2017-12-23T20:30:33.851Z,10.88
2017-12-23T20:33:02.122Z,11.73
2017-12-23T20:35:30.651Z,10.60
2017-12-23T20:37:58.166Z,11.73
2017-12-23T20:40:26.418Z,9.90
2017-12-23T20:42:53.906Z,10.15
2017-12-23T20:45:22.185Z,9.75
2017-12-23T20:47:50.437Z,10.02
2017-12-23T20:50:17.926Z,11.45
2017-12-23T20:52:45.434Z,11.65
2017-12-23T20:55:12.922Z,12.10
2017-12-23T20:57:41.174Z,12.60
2017-12-23T21:00:08.700Z,11.32
2017-12-23T21:02:36.183Z,11.27
2017-12-23T21:05:03.686Z,10.55
2017-12-23T21:07:31.967Z,11.20
2017-12-23T21:10:00.290Z,10.43
2017-12-23T21:12:28.590Z,12.55
2017-12-23T21:14:56.097Z,11.50
2017-12-23T21:17:23.768Z,11.45
2017-12-23T21:19:51.328Z,11.07
2017-12-23T21:22:18.832Z,10.70
2017-12-23T21:24:46.325Z,10.18
2017-12-23T21:27:13.814Z,10.90
2017-12-23T21:29:41.335Z,12.05
2017-12-23T21:32:09.586Z,9.13
2017-12-23T21:34:37.074Z,10.65
2017-12-23T21:37:06.326Z,10.15
2017-12-23T21:39:33.814Z,11.32
2017-12-23T21:42:02.070Z,9.15
2017-12-23T21:44:29.641Z,9.43
2017-12-23T21:46:57.126Z,9.13
2017-12-23T21:49:24.619Z,10.10
2017-12-23T21:51:52.169Z,8.80
2017-12-23T21:54:19.671Z,9.75
2017-12-23T21:56:47.150Z,8.88
2017-12-23T21:59:15.426Z,8.98
2017-12-23T22:01:43.690Z,8.07
2017-12-23T22:04:11.167Z,8.70
2017-12-23T22:06:39.434Z,7.40
2017-12-23T22:09:07.718Z,9.10
2017-12-23T22:11:35.181Z,8.82
2017-12-23T22:14:02.682Z,8.32
2017-12-23T22:16:31.045Z,8.00
2017-12-23T22:18:58.550Z,9.02
2017-12-23T22:21:28.315Z,8.20
2017-12-23T22:23:55.795Z,7.65
2017-12-23T22:26:23.278Z,8.60
2017-12-23T22:28:50.845Z,9.38
2017-12-23T22:31:18.296Z,8.95
2017-12-23T22:33:45.782Z,7.53
2017-12-23T22:36:14.054Z,9.07
2017-12-23T22:38:42.305Z,7.35
2017-12-23T22:41:09.790Z,6.93
2017-12-23T22:43:38.054Z,7.75
2017-12-23T22:46:06.297Z,7.35
2017-12-23T22:48:33.779Z,5.95
2017-12-23T22:51:01.279Z,6.27
2017-12-23T22:53:28.766Z,6.85
2017-12-23T22:55:57.045Z,6.12
2017-12-23T22:58:24.546Z,5.95
2017-12-23T23:00:52.793Z,5.95
2017-12-23T23:03:20.274Z,5.75
2017-12-23T23:05:48.551Z,5.70
2017-12-23T23:08:16.798Z,5.07
2017-12-23T23:10:44.274Z,5.93
2017-12-23T23:13:11.838Z,5.22
2017-12-23T23:15:39.319Z,5.78
2017-12-23T23:18:07.592Z,5.62
2017-12-23T23:20:35.275Z,5.18
2017-12-23T23:23:02.755Z,4.03
2017-12-23T23:25:30.238Z,4.28
2017-12-23T23:27:57.763Z,5.95
2017-12-23T23:30:25.670Z,5.22
2017-12-23T23:32:53.146Z,3.83
2017-12-23T23:35:21.407Z,4.30
2017-12-23T23:37:48.894Z,4.70
2017-12-23T23:40:17.138Z,4.45
2017-12-23T23:42:44.642Z,5.00
2017-12-23T23:45:12.126Z,5.10
2017-12-23T23:47:39.618Z,4.82
2017-12-23T23:50:07.128Z,4.53
2017-12-23T23:52:34.601Z,4.53
2017-12-23T23:55:02.083Z,5.53
2017-12-23T23:57:29.578Z,5.15
2017-12-23T23:59:57.062Z,5.05
